Terminal Aerodrome Forecast
Issued by NWS Twin Cities, MN

Home | Current Version | Previous Version | Graphics & Text | Print | Product List | Glossary On
Versions: 1 2 3 4 5 6 7 8 9 10 11 12
000
FTUS43 KMPX 232320
TAFEAU
TAF
KEAU 232320Z 2400/2424 08005KT P6SM BKN200
     FM240600 12009KT P6SM BKN200
     FM241600 15012G21KT P6SM BKN250=

USA.gov is the U.S. government's official web portal to all federal, state and local government web resources and services.